Aviation Digital Data Service (ADDS)

Output produced by METARs form (0211 UTC 31 August 2016)
found at http://aviationweather.gov/adds/metars/
 
KEKN 302320Z 3100/3124 34003KT P6SM SKC 
     FM310500 00000KT 1 1/2SM BR FEW250 
     FM310600 00000KT 1/2SM FG VV001 
     FM311330 00000KT 3SM BR SCT002 
     FM311400 26004KT P6SM FEW100